Time;durP1;ratioP1;P1;durP2;ratioP2;P2;SDS_P1;SDS_P2;PMS_P1;PMS_P2;Temp;Humidity;BMP_temperature;BMP_pressure;BME280_temperature;BME280_humidity;BME280_pressure;Samples;Min_cycle;Max_cycle;Signal;HPM_P1;HPM_P2
2023/09/23 00:01:36;;;;;;;5.95;3.05;;;13.10;99.90;;;;;;5093875;28;20043;-52
2023/09/23 00:04:03;;;;;;;3.97;2.40;;;13.10;99.90;;;;;;5093618;28;20046;-52
2023/09/23 00:06:28;;;;;;;9.02;2.72;;;13.10;99.90;;;;;;5093591;28;20056;-50
2023/09/23 00:08:55;;;;;;;3.70;2.15;;;13.00;99.90;;;;;;5092373;28;20038;-52
2023/09/23 00:11:21;;;;;;;3.25;2.30;;;13.10;99.90;;;;;;5093693;28;20047;-50
2023/09/23 00:13:47;;;;;;;2.72;1.98;;;13.10;99.90;;;;;;5093230;28;20048;-52
2023/09/23 00:16:15;;;;;;;3.92;2.15;;;13.00;99.90;;;;;;5093531;28;20101;-48
2023/09/23 00:18:42;;;;;;;3.70;2.40;;;12.90;99.90;;;;;;5093285;28;20032;-51
2023/09/23 00:21:09;;;;;;;4.53;2.13;;;13.00;99.90;;;;;;5074875;28;20054;-48
2023/09/23 00:23:35;;;;;;;3.95;2.22;;;12.90;99.90;;;;;;5073148;28;20466;-48
2023/09/23 00:26:03;;;;;;;4.00;2.28;;;12.90;99.90;;;;;;5089396;28;20089;-51
2023/09/23 00:28:30;;;;;;;4.30;2.17;;;12.90;99.90;;;;;;5093141;28;20490;-48
2023/09/23 00:31:10;;;;;;;4.80;2.50;;;12.90;99.90;;;;;;5093283;28;20514;-48
2023/09/23 00:33:37;;;;;;;4.47;2.22;;;12.90;99.90;;;;;;5091868;28;20085;-48
2023/09/23 00:36:04;;;;;;;2.15;1.80;;;12.80;99.90;;;;;;5093377;28;20032;-52
2023/09/23 00:38:30;;;;;;;2.45;1.75;;;12.80;99.90;;;;;;5093041;28;20047;-51
2023/09/23 00:40:57;;;;;;;3.67;1.90;;;12.80;99.90;;;;;;5092825;28;20043;-52
2023/09/23 00:43:23;;;;;;;4.72;1.88;;;12.80;99.90;;;;;;5091628;28;20203;-52
2023/09/23 00:45:51;;;;;;;2.63;1.67;;;12.80;99.90;;;;;;5092717;28;20123;-48
2023/09/23 00:48:20;;;;;;;3.60;1.70;;;12.80;99.90;;;;;;5093044;28;20374;-50
2023/09/23 00:50:47;;;;;;;3.25;1.50;;;12.70;99.90;;;;;;5092975;28;20345;-52
2023/09/23 00:53:14;;;;;;;4.30;1.30;;;12.70;99.90;;;;;;5092716;28;20096;-50
2023/09/23 00:55:47;;;;;;;3.42;1.50;;;12.70;99.90;;;;;;5092152;28;20525;-50
2023/09/23 00:58:18;;;;;;;2.17;1.17;;;12.70;99.90;;;;;;5091273;28;20050;-51
2023/09/23 01:00:44;;;;;;;2.83;1.30;;;12.60;99.90;;;;;;5092687;28;20044;-52
2023/09/23 01:03:10;;;;;;;1.25;0.90;;;12.60;99.90;;;;;;5092603;28;20051;-52
2023/09/23 01:05:36;;;;;;;2.95;1.00;;;12.60;99.90;;;;;;5092444;28;21504;-52
2023/09/23 01:08:04;;;;;;;1.52;0.90;;;12.60;99.90;;;;;;5091483;28;20035;-52
2023/09/23 01:10:30;;;;;;;1.25;0.90;;;12.60;99.90;;;;;;5092483;28;20040;-48
2023/09/23 01:12:56;;;;;;;1.05;0.95;;;12.50;99.90;;;;;;5092431;28;20047;-49
2023/09/23 01:15:25;;;;;;;1.52;1.10;;;12.50;99.90;;;;;;5092156;28;20064;-48
2023/09/23 01:17:53;;;;;;;2.85;1.02;;;12.50;99.90;;;;;;5092356;28;20054;-49
2023/09/23 01:20:23;;;;;;;3.40;0.90;;;12.50;99.90;;;;;;5080784;28;20044;-50
2023/09/23 01:22:49;;;;;;;1.45;1.27;;;12.50;99.90;;;;;;5071944;28;20040;-50
2023/09/23 01:25:16;;;;;;;2.35;0.93;;;12.40;99.90;;;;;;5073490;28;20032;-52
2023/09/23 01:27:42;;;;;;;2.95;1.33;;;12.50;99.90;;;;;;5092202;28;20051;-50
2023/09/23 01:30:08;;;;;;;3.88;1.20;;;12.40;99.90;;;;;;5092528;28;20408;-50
2023/09/23 01:32:51;;;;;;;3.05;1.30;;;12.40;99.90;;;;;;5092219;28;20035;-50
2023/09/23 01:35:20;;;;;;;2.85;1.50;;;12.40;99.90;;;;;;5091970;28;20047;-50
2023/09/23 01:37:46;;;;;;;1.83;1.20;;;12.40;99.90;;;;;;5092128;28;20036;-50
2023/09/23 01:40:17;;;;;;;2.25;1.38;;;12.40;99.90;;;;;;5092052;28;20440;-49
2023/09/23 01:42:51;;;;;;;3.88;1.30;;;12.50;99.90;;;;;;5091691;28;20032;-47
2023/09/23 01:45:19;;;;;;;3.25;1.30;;;12.50;99.90;;;;;;5091956;28;20028;-49
2023/09/23 01:47:45;;;;;;;1.58;1.00;;;12.50;99.90;;;;;;5092069;28;20390;-50
2023/09/23 01:50:11;;;;;;;1.40;1.30;;;12.40;99.90;;;;;;5091858;28;20385;-49
2023/09/23 01:52:37;;;;;;;4.25;1.20;;;12.50;99.90;;;;;;5091855;28;20031;-51
2023/09/23 01:55:05;;;;;;;5.13;1.40;;;12.50;99.90;;;;;;5092206;28;20075;-52
2023/09/23 01:57:34;;;;;;;3.75;1.42;;;12.50;99.90;;;;;;5091985;28;20039;-48
2023/09/23 02:02:46;;;;;;;2.33;1.05;;;12.50;99.90;;;;;;5069451;28;20521;-50
2023/09/23 02:05:12;;;;;;;3.53;1.00;;;12.40;99.90;;;;;;5069499;28;20207;-47
2023/09/23 02:07:39;;;;;;;1.88;1.00;;;12.40;99.90;;;;;;5070975;28;20059;-51
2023/09/23 02:10:09;;;;;;;2.85;1.20;;;12.40;99.90;;;;;;5059518;28;20048;-51
2023/09/23 02:12:35;;;;;;;2.35;1.08;;;12.40;99.90;;;;;;5075991;28;20402;-51
2023/09/23 02:15:00;;;;;;;1.73;1.10;;;12.40;99.90;;;;;;5075861;28;20083;-51
2023/09/23 02:17:26;;;;;;;2.13;1.20;;;12.50;99.90;;;;;;5076092;28;20060;-49
2023/09/23 02:19:52;;;;;;;1.80;1.05;;;12.40;99.90;;;;;;5051319;28;20049;-50
2023/09/23 02:22:18;;;;;;;2.25;1.10;;;12.40;99.90;;;;;;5055938;28;20045;-52
2023/09/23 02:24:44;;;;;;;2.45;1.42;;;12.40;99.90;;;;;;5055734;28;20152;-50
2023/09/23 02:27:10;;;;;;;4.82;1.52;;;12.40;99.90;;;;;;5055689;28;20143;-53
2023/09/23 02:29:36;;;;;;;2.15;1.42;;;12.30;99.90;;;;;;5038759;28;20519;-52
2023/09/23 02:32:02;;;;;;;5.97;2.15;;;12.30;99.90;;;;;;5055608;28;20045;-52
2023/09/23 02:34:28;;;;;;;3.25;1.65;;;12.40;99.90;;;;;;5038850;28;20052;-53
2023/09/23 02:36:54;;;;;;;4.63;1.88;;;12.30;99.90;;;;;;5039047;28;20420;-53
2023/09/23 02:39:20;;;;;;;3.38;1.88;;;12.30;99.90;;;;;;5056257;28;20056;-52
2023/09/23 02:41:50;;;;;;;3.53;2.08;;;12.30;99.90;;;;;;5077661;28;20425;-52
2023/09/23 02:44:19;;;;;;;4.28;2.38;;;12.30;99.90;;;;;;5078044;28;20071;-50
2023/09/23 02:46:46;;;;;;;3.40;2.40;;;12.30;99.90;;;;;;5077510;28;20043;-53
2023/09/23 02:49:15;;;;;;;3.83;2.20;;;12.30;99.90;;;;;;5077747;28;20044;-51
2023/09/23 02:51:41;;;;;;;3.17;2.67;;;12.20;99.90;;;;;;5077827;28;20103;-53
2023/09/23 02:54:09;;;;;;;4.93;3.38;;;12.30;99.90;;;;;;5076737;28;20068;-52
2023/09/23 02:56:35;;;;;;;6.25;4.65;;;12.20;99.90;;;;;;5075309;28;20048;-53
2023/09/23 02:59:21;;;;;;;5.05;4.05;;;12.20;99.90;;;;;;5086067;28;20043;-52
2023/09/23 03:01:51;;;;;;;4.78;4.25;;;12.20;99.90;;;;;;5077980;28;20052;-54
2023/09/23 03:04:23;;;;;;;6.38;4.47;;;12.20;99.90;;;;;;5077782;28;20387;-52
2023/09/23 03:07:01;;;;;;;10.50;5.90;;;12.30;99.90;;;;;;5077799;28;20184;-51
2023/09/23 03:09:32;;;;;;;6.30;5.70;;;12.20;99.90;;;;;;5086266;28;20036;-51
2023/09/23 03:11:59;;;;;;;7.50;5.70;;;12.20;99.90;;;;;;5096460;28;20040;-52
2023/09/23 03:14:35;;;;;;;6.00;5.45;;;12.20;99.90;;;;;;5087800;28;20049;-51
2023/09/23 03:17:03;;;;;;;6.95;5.95;;;12.10;99.90;;;;;;5077542;28;20050;-52
2023/09/23 03:19:28;;;;;;;6.47;5.60;;;12.10;99.90;;;;;;5084145;28;20043;-53
2023/09/23 03:21:56;;;;;;;7.07;6.25;;;12.10;99.90;;;;;;5094452;28;20032;-51
2023/09/23 03:24:25;;;;;;;7.90;5.78;;;12.10;99.90;;;;;;5094316;28;20032;-52
2023/09/23 03:27:02;;;;;;;7.70;6.20;;;12.10;99.90;;;;;;5094680;28;20044;-53
2023/09/23 03:29:30;;;;;;;7.50;5.80;;;12.10;99.90;;;;;;5094607;28;20111;-50
2023/09/23 03:31:57;;;;;;;7.82;6.43;;;12.00;99.90;;;;;;5082432;28;20036;-52
2023/09/23 03:34:23;;;;;;;7.53;5.57;;;12.00;99.90;;;;;;5072586;28;20090;-50
2023/09/23 03:36:51;;;;;;;11.60;6.22;;;12.00;99.90;;;;;;5074074;28;20044;-51
2023/09/23 03:39:17;;;;;;;6.55;5.65;;;11.90;99.90;;;;;;5074345;28;20048;-49
2023/09/23 03:41:46;;;;;;;6.65;5.95;;;11.90;99.90;;;;;;5072964;28;20406;-49
2023/09/23 03:44:15;;;;;;;6.40;5.15;;;11.90;99.90;;;;;;5073956;28;20044;-50
2023/09/23 03:46:50;;;;;;;6.75;5.75;;;12.00;99.90;;;;;;5074254;28;20048;-52
2023/09/23 03:49:17;;;;;;;7.95;5.95;;;11.80;99.90;;;;;;5073768;28;20113;-51
2023/09/23 03:51:43;;;;;;;5.50;5.00;;;11.90;99.90;;;;;;5083925;28;20504;-51
2023/09/23 03:54:10;;;;;;;6.85;5.13;;;11.90;99.90;;;;;;5093943;28;20075;-51
2023/09/23 03:56:39;;;;;;;10.38;6.15;;;11.70;99.90;;;;;;5093937;28;20044;-50
2023/09/23 03:59:05;;;;;;;7.28;6.28;;;11.80;99.90;;;;;;5092610;28;20060;-51
2023/09/23 04:01:36;;;;;;;8.60;6.05;;;11.80;99.90;;;;;;5094384;28;20512;-49
2023/09/23 04:04:03;;;;;;;9.93;6.95;;;11.70;99.90;;;;;;5093729;28;20509;-52
2023/09/23 04:06:29;;;;;;;8.45;6.45;;;11.70;99.90;;;;;;5078182;28;20044;-51
2023/09/23 04:08:58;;;;;;;7.80;6.22;;;11.70;99.90;;;;;;5077003;28;20065;-51
2023/09/23 04:11:25;;;;;;;;;;;11.70;99.90;;;;;;5094278;28;20032;-50
2023/09/23 04:13:52;;;;;;;9.00;6.22;;;11.70;99.90;;;;;;5093052;28;20039;-49
2023/09/23 04:16:19;;;;;;;8.70;6.28;;;11.60;99.90;;;;;;5093581;28;20055;-50
2023/09/23 04:18:46;;;;;;;12.40;7.13;;;11.70;99.90;;;;;;5093768;28;20363;-50
2023/09/23 04:21:13;;;;;;;8.02;6.90;;;11.60;99.90;;;;;;5092525;28;20044;-52
2023/09/23 04:23:39;;;;;;;9.73;7.15;;;11.60;99.90;;;;;;5093433;28;20040;-50
2023/09/23 04:26:08;;;;;;;7.63;6.82;;;11.60;99.90;;;;;;5093280;28;20116;-52
2023/09/23 04:28:33;;;;;;;10.20;7.72;;;11.60;99.90;;;;;;5093254;28;20040;-49
2023/09/23 04:30:59;;;;;;;10.00;7.03;;;11.60;99.90;;;;;;5090999;28;20051;-52
2023/09/23 04:33:27;;;;;;;9.77;6.60;;;11.50;99.90;;;;;;5092842;28;20036;-52
2023/09/23 04:35:56;;;;;;;9.15;6.82;;;11.60;99.90;;;;;;5093187;28;20059;-49
2023/09/23 04:38:23;;;;;;;8.02;6.30;;;11.60;99.90;;;;;;5092989;28;20478;-50
2023/09/23 04:40:49;;;;;;;9.38;6.93;;;11.60;99.90;;;;;;5093138;28;20043;-51
2023/09/23 04:43:16;;;;;;;8.13;7.05;;;11.60;99.90;;;;;;5093174;28;20470;-49
2023/09/23 04:45:42;;;;;;;6.63;5.93;;;11.50;99.90;;;;;;5092988;28;20054;-52
2023/09/23 04:48:08;;;;;;;10.70;6.88;;;11.60;99.90;;;;;;5093035;28;20036;-52
2023/09/23 04:50:35;;;;;;;7.10;6.40;;;11.60;99.90;;;;;;5092936;28;20106;-51
2023/09/23 04:53:02;;;;;;;11.05;6.40;;;11.60;99.90;;;;;;5092684;28;20090;-52
2023/09/23 04:55:28;;;;;;;7.88;6.30;;;11.60;99.90;;;;;;5093121;28;20085;-49
2023/09/23 04:57:55;;;;;;;12.02;6.78;;;11.60;99.90;;;;;;5092768;28;20043;-51
2023/09/23 05:00:22;;;;;;;9.55;6.40;;;11.60;99.90;;;;;;5092598;28;20050;-51
2023/09/23 05:02:51;;;;;;;8.48;6.50;;;11.60;99.90;;;;;;5092901;28;20120;-52
2023/09/23 05:05:18;;;;;;;7.25;6.32;;;11.50;99.90;;;;;;5087007;28;20064;-52
2023/09/23 05:07:44;;;;;;;9.07;6.47;;;11.60;99.90;;;;;;5072573;28;20037;-52
2023/09/23 05:10:11;;;;;;;8.05;6.88;;;11.60;99.90;;;;;;5076941;28;20039;-53
2023/09/23 05:12:37;;;;;;;8.38;6.57;;;11.60;99.90;;;;;;5092288;28;20467;-49
2023/09/23 05:15:03;;;;;;;8.70;6.25;;;11.60;99.90;;;;;;5092348;28;20075;-51
2023/09/23 05:17:30;;;;;;;9.63;7.20;;;11.60;99.90;;;;;;5092724;28;20241;-53
2023/09/23 05:19:56;;;;;;;9.38;6.82;;;11.60;99.90;;;;;;5092410;28;20109;-50
2023/09/23 05:22:22;;;;;;;9.70;6.57;;;11.60;99.90;;;;;;5092397;28;20478;-52
2023/09/23 05:24:50;;;;;;;7.25;6.53;;;11.60;99.90;;;;;;5092446;28;20428;-52
2023/09/23 05:27:16;;;;;;;9.40;6.87;;;11.60;99.90;;;;;;5092122;28;20036;-51
2023/09/23 05:29:43;;;;;;;8.05;6.55;;;11.60;99.90;;;;;;5092038;28;20039;-51
2023/09/23 05:32:12;;;;;;;8.15;6.38;;;11.50;99.90;;;;;;5092214;28;20043;-52
2023/09/23 05:34:42;;;;;;;7.30;6.43;;;11.50;99.90;;;;;;5092291;28;20459;-51
2023/09/23 05:37:11;;;;;;;6.38;5.70;;;11.50;99.90;;;;;;5092046;28;20104;-50
2023/09/23 05:39:37;;;;;;;10.25;7.03;;;11.50;99.90;;;;;;5092462;28;20047;-53
2023/09/23 05:42:03;;;;;;;10.05;6.80;;;11.50;99.90;;;;;;5090656;28;20115;-52
2023/09/23 05:44:28;;;;;;;8.65;7.78;;;11.40;99.90;;;;;;5091805;28;20132;-52
2023/09/23 05:46:54;;;;;;;7.90;6.50;;;11.50;99.90;;;;;;5090835;28;20035;-52
2023/09/23 05:49:19;;;;;;;9.20;7.47;;;11.40;99.90;;;;;;5091875;28;20028;-49
2023/09/23 05:51:45;;;;;;;8.20;7.10;;;11.40;99.90;;;;;;5091869;28;20047;-50
2023/09/23 05:54:11;;;;;;;10.02;8.05;;;11.40;99.90;;;;;;5091993;28;20382;-54
2023/09/23 05:56:38;;;;;;;9.00;7.50;;;11.40;99.90;;;;;;5091796;28;20044;-49
2023/09/23 05:59:05;;;;;;;9.73;7.75;;;11.40;99.90;;;;;;5091523;28;20490;-51
2023/09/23 06:01:31;;;;;;;9.75;7.68;;;11.40;99.90;;;;;;5091917;28;20047;-50
2023/09/23 06:03:58;;;;;;;9.15;7.40;;;11.50;99.90;;;;;;5091911;28;20496;-53
2023/09/23 06:06:24;;;;;;;8.50;7.57;;;11.50;99.90;;;;;;5076544;28;20052;-50
2023/09/23 06:08:50;;;;;;;10.00;8.55;;;11.50;99.90;;;;;;5074345;28;20044;-52
2023/09/23 06:11:16;;;;;;;10.57;8.38;;;11.50;99.90;;;;;;5087712;28;20036;-49
2023/09/23 06:13:42;;;;;;;9.23;8.13;;;11.60;99.90;;;;;;5086213;28;20488;-49
2023/09/23 06:16:07;;;;;;;10.82;8.90;;;11.60;99.90;;;;;;5086548;28;20047;-52
2023/09/23 06:18:33;;;;;;;10.23;9.02;;;11.70;99.90;;;;;;5091376;28;20040;-49
2023/09/23 06:21:00;;;;;;;10.57;9.20;;;11.90;99.90;;;;;;5091845;28;20040;-50
2023/09/23 06:23:26;;;;;;;13.20;10.10;;;11.90;99.90;;;;;;5091956;28;20047;-51
2023/09/23 06:26:00;;;;;;;14.57;9.45;;;11.90;99.90;;;;;;5091298;28;20482;-51
2023/09/23 06:28:26;;;;;;;12.52;9.20;;;11.90;99.90;;;;;;5091705;28;20032;-50
2023/09/23 06:30:52;;;;;;;12.20;10.75;;;11.90;99.90;;;;;;5091469;28;20043;-49
2023/09/23 06:33:18;;;;;;;12.02;10.43;;;11.80;99.90;;;;;;5091731;28;20484;-50
2023/09/23 06:35:45;;;;;;;13.07;11.57;;;12.00;99.90;;;;;;5091566;28;20039;-52
2023/09/23 06:38:11;;;;;;;12.95;11.57;;;12.00;99.90;;;;;;5087383;28;20406;-50
2023/09/23 06:40:37;;;;;;;19.80;12.80;;;12.10;99.90;;;;;;5084477;28;20123;-50
2023/09/23 06:43:03;;;;;;;13.30;11.88;;;12.10;99.90;;;;;;5091294;28;20111;-51
2023/09/23 06:45:29;;;;;;;16.42;12.40;;;12.20;99.90;;;;;;5091597;28;20101;-52
2023/09/23 06:47:54;;;;;;;15.95;13.40;;;12.30;99.90;;;;;;5091277;28;20085;-51
2023/09/23 06:50:20;;;;;;;15.43;13.68;;;12.20;99.90;;;;;;5091553;28;20090;-49
2023/09/23 06:52:46;;;;;;;18.67;14.57;;;12.30;99.90;;;;;;5090910;28;20032;-49
2023/09/23 06:55:11;;;;;;;18.67;14.80;;;12.40;99.90;;;;;;5093122;28;20075;-49
2023/09/23 06:57:37;;;;;;;17.25;15.25;;;12.40;99.90;;;;;;5095328;28;20047;-52
2023/09/23 07:00:06;;;;;;;17.67;15.20;;;12.40;99.90;;;;;;5095174;28;20036;-53
2023/09/23 07:02:32;;;;;;;20.05;15.85;;;12.40;99.90;;;;;;5094889;28;20490;-52
2023/09/23 07:04:58;;;;;;;21.38;15.70;;;12.50;99.90;;;;;;5091743;28;20033;-50
2023/09/23 07:07:23;;;;;;;19.67;15.82;;;12.50;99.90;;;;;;5074411;28;20059;-53
2023/09/23 07:09:49;;;;;;;18.05;15.45;;;12.50;99.90;;;;;;5092619;28;20038;-50
2023/09/23 07:12:15;;;;;;;21.65;16.25;;;12.50;99.90;;;;;;5094815;28;20131;-52
2023/09/23 07:14:41;;;;;;;19.13;15.85;;;12.60;99.90;;;;;;5094482;28;20049;-50
2023/09/23 07:17:06;;;;;;;18.95;15.10;;;12.60;99.90;;;;;;5094643;28;20040;-49
2023/09/23 07:19:33;;;;;;;19.38;16.10;;;12.70;99.90;;;;;;5093089;28;20397;-53
2023/09/23 07:21:59;;;;;;;21.00;15.45;;;12.60;99.90;;;;;;5093499;28;20128;-52
2023/09/23 07:24:26;;;;;;;20.23;14.80;;;12.70;99.90;;;;;;5093601;28;20545;-48
2023/09/23 07:26:55;;;;;;;21.55;14.63;;;12.70;99.90;;;;;;5094782;28;20123;-54
2023/09/23 07:29:21;;;;;;;20.33;15.27;;;12.90;99.90;;;;;;5094436;28;20572;-49
2023/09/23 07:31:47;;;;;;;17.35;15.10;;;13.00;99.90;;;;;;5094239;28;20040;-50
2023/09/23 07:34:12;;;;;;;16.83;14.55;;;13.10;99.90;;;;;;5095043;28;20044;-50
2023/09/23 07:36:38;;;;;;;16.02;14.32;;;13.10;99.90;;;;;;5094325;28;20044;-49
2023/09/23 07:39:04;;;;;;;16.92;14.38;;;13.30;99.90;;;;;;5094457;28;20161;-53
2023/09/23 07:41:29;;;;;;;19.02;14.48;;;13.40;99.90;;;;;;5094270;28;20500;-50
2023/09/23 07:43:57;;;;;;;15.63;13.48;;;13.40;99.90;;;;;;5094092;28;20047;-49
2023/09/23 07:46:23;;;;;;;17.50;14.27;;;13.40;99.90;;;;;;5094110;28;20044;-51
2023/09/23 07:48:48;;;;;;;17.08;12.93;;;13.50;99.90;;;;;;5094647;28;20040;-48
2023/09/23 07:51:14;;;;;;;17.48;14.45;;;13.70;99.90;;;;;;5092692;28;20039;-48
2023/09/23 07:53:40;;;;;;;16.02;14.02;;;13.90;99.90;;;;;;5094159;28;20043;-50
2023/09/23 07:56:05;;;;;;;16.30;13.40;;;14.10;99.90;;;;;;5092866;28;20035;-47
2023/09/23 07:58:31;;;;;;;17.52;12.88;;;14.20;99.90;;;;;;5094054;28;20478;-48
2023/09/23 08:00:57;;;;;;;15.30;13.30;;;14.10;99.90;;;;;;5093830;28;20075;-50
2023/09/23 08:03:26;;;;;;;16.73;12.90;;;14.20;99.90;;;;;;5093746;28;20039;-49
2023/09/23 08:05:53;;;;;;;15.95;13.10;;;14.30;99.90;;;;;;5080799;28;20074;-51
2023/09/23 08:08:19;;;;;;;19.48;11.95;;;14.20;99.90;;;;;;5086622;28;20391;-50
2023/09/23 08:10:44;;;;;;;15.27;13.25;;;14.30;99.90;;;;;;5087340;28;20024;-49
2023/09/23 08:13:10;;;;;;;17.30;12.13;;;14.40;99.90;;;;;;5093529;28;20035;-49
2023/09/23 08:15:36;;;;;;;15.13;12.38;;;14.40;99.90;;;;;;5091989;28;20056;-48
2023/09/23 08:18:02;;;;;;;16.25;13.00;;;14.40;99.90;;;;;;5093346;28;20494;-50
2023/09/23 08:20:28;;;;;;;14.48;11.75;;;14.40;99.90;;;;;;5093461;28;20070;-50
2023/09/23 08:22:53;;;;;;;14.50;11.10;;;14.40;99.90;;;;;;5093316;28;20053;-50
2023/09/23 08:25:19;;;;;;;14.35;10.93;;;14.40;99.90;;;;;;5093679;28;20040;-49
2023/09/23 08:27:45;;;;;;;15.73;11.38;;;14.50;99.90;;;;;;5093438;28;20055;-51
2023/09/23 08:30:13;;;;;;;14.75;10.65;;;14.50;99.90;;;;;;5093615;28;20045;-48
2023/09/23 08:32:39;;;;;;;15.30;11.10;;;14.50;99.90;;;;;;5093410;28;20841;-49
2023/09/23 08:35:07;;;;;;;11.65;10.32;;;14.50;99.90;;;;;;5093427;28;20390;-51
2023/09/23 08:37:33;;;;;;;15.02;10.07;;;14.50;99.90;;;;;;5093386;28;20044;-50
2023/09/23 08:39:59;;;;;;;11.82;10.60;;;14.60;99.90;;;;;;5080640;28;20048;-52
2023/09/23 08:42:25;;;;;;;12.48;9.43;;;15.00;99.90;;;;;;5092972;28;20040;-51
2023/09/23 08:44:51;;;;;;;12.68;10.05;;;15.20;99.90;;;;;;5081090;28;20036;-47
2023/09/23 08:47:18;;;;;;;12.18;9.85;;;15.50;99.90;;;;;;5091523;28;20036;-50
2023/09/23 08:49:49;;;;;;;10.82;8.63;;;15.80;99.90;;;;;;5093049;28;20032;-49
2023/09/23 08:52:18;;;;;;;10.65;8.10;;;16.00;99.90;;;;;;5093185;28;20040;-53
2023/09/23 08:54:48;;;;;;;11.50;7.65;;;16.10;99.90;;;;;;5092803;28;20477;-54
2023/09/23 08:57:17;;;;;;;8.35;6.90;;;16.30;99.90;;;;;;5092714;28;20133;-51
2023/09/23 08:59:43;;;;;;;;;;;16.50;99.90;;;;;;5093056;28;20066;-53
2023/09/23 09:02:10;;;;;;;9.00;6.10;;;16.90;99.90;;;;;;5092470;28;20487;-54
2023/09/23 09:04:36;;;;;;;7.18;5.43;;;17.30;99.90;;;;;;5092704;28;20044;-48
2023/09/23 09:07:02;;;;;;;9.30;5.82;;;17.70;99.90;;;;;;5058416;28;20039;-50
2023/09/23 09:09:28;;;;;;;7.60;5.07;;;17.90;99.90;;;;;;5072295;28;20399;-48
2023/09/23 09:11:54;;;;;;;8.82;5.85;;;18.30;99.90;;;;;;5080505;28;20036;-47
2023/09/23 09:14:22;;;;;;;9.50;5.10;;;18.40;99.90;;;;;;5081304;28;20120;-49
2023/09/23 09:16:48;;;;;;;6.32;4.43;;;18.60;99.90;;;;;;5092210;28;20394;-50
2023/09/23 09:19:14;;;;;;;7.53;4.55;;;18.70;99.90;;;;;;5086400;28;20032;-50
2023/09/23 09:21:41;;;;;;;6.70;4.50;;;18.90;99.90;;;;;;5089245;28;20043;-48
2023/09/23 09:24:07;;;;;;;7.15;4.35;;;18.90;99.90;;;;;;5092257;28;20582;-48
2023/09/23 09:26:35;;;;;;;5.90;3.90;;;18.70;99.90;;;;;;5091261;28;20481;-51
2023/09/23 09:29:02;;;;;;;4.43;3.77;;;18.50;99.90;;;;;;5092136;28;20080;-47
2023/09/23 09:31:35;;;;;;;7.28;3.72;;;18.30;99.90;;;;;;5092549;28;20051;-47
2023/09/23 09:34:11;;;;;;;5.93;3.20;;;18.10;99.90;;;;;;5092147;28;20040;-48
2023/09/23 09:36:40;;;;;;;6.45;3.80;;;18.20;99.90;;;;;;5085513;28;20087;-50
2023/09/23 09:39:10;;;;;;;5.18;3.53;;;18.20;99.90;;;;;;5079880;28;20067;-47
2023/09/23 09:41:53;;;;;;;6.45;3.38;;;18.20;99.90;;;;;;5085947;28;20051;-46
2023/09/23 09:44:23;;;;;;;5.00;3.00;;;18.10;99.90;;;;;;5088195;28;20379;-48
2023/09/23 09:46:51;;;;;;;3.83;2.47;;;17.90;99.90;;;;;;5091986;28;20072;-48
2023/09/23 09:49:17;;;;;;;6.13;3.47;;;17.70;99.90;;;;;;5091930;28;20052;-48
2023/09/23 09:51:46;;;;;;;7.38;3.78;;;17.50;99.90;;;;;;5091764;28;20039;-46
2023/09/23 09:54:14;;;;;;;24.35;6.70;;;17.50;99.90;;;;;;5092034;28;20483;-49
2023/09/23 09:56:40;;;;;;;4.45;2.50;;;17.50;99.90;;;;;;5091829;28;20485;-51
2023/09/23 09:59:06;;;;;;;4.80;2.25;;;17.60;99.90;;;;;;5092147;28;20079;-48
2023/09/23 10:01:34;;;;;;;3.50;2.33;;;17.60;99.90;;;;;;5089997;28;20141;-50
2023/09/23 10:03:59;;;;;;;5.03;2.00;;;17.70;99.90;;;;;;5066518;28;20206;-50
2023/09/23 10:06:26;;;;;;;4.50;1.80;;;17.70;99.90;;;;;;5070914;28;20119;-50
2023/09/23 10:08:53;;;;;;;6.85;1.77;;;17.70;99.90;;;;;;5071151;28;20490;-51
2023/09/23 10:11:33;;;;;;;3.17;1.77;;;17.70;99.90;;;;;;5085549;28;20039;-47
2023/09/23 10:13:58;;;;;;;;;;;17.70;99.90;;;;;;5072962;28;20524;-49
2023/09/23 10:16:27;;;;;;;6.43;2.05;;;17.80;99.90;;;;;;5084466;28;19962;-47
2023/09/23 10:18:59;;;;;;;6.55;2.20;;;17.70;99.90;;;;;;5078673;28;20044;-49
2023/09/23 10:21:29;;;;;;;4.32;2.00;;;17.60;99.90;;;;;;5064862;28;20115;-50
2023/09/23 10:23:56;;;;;;;4.68;1.92;;;17.60;99.90;;;;;;5071367;28;20036;-50
2023/09/23 10:26:23;;;;;;;5.75;2.47;;;17.50;99.90;;;;;;5070897;28;20501;-52
2023/09/23 10:28:59;;;;;;;3.83;1.88;;;17.40;99.90;;;;;;5072084;28;20483;-48
2023/09/23 10:31:26;;;;;;;3.30;1.92;;;17.40;99.90;;;;;;5068174;28;20039;-51
2023/09/23 10:33:53;;;;;;;5.07;2.33;;;17.30;99.90;;;;;;5074991;28;20189;-48
2023/09/23 10:36:20;;;;;;;5.53;2.30;;;17.10;99.90;;;;;;5074895;28;20442;-49
2023/09/23 10:38:46;;;;;;;4.13;2.50;;;17.00;99.90;;;;;;5074739;28;20024;-50
2023/09/23 10:41:12;;;;;;;6.97;2.70;;;16.90;99.90;;;;;;5073511;28;20439;-47
2023/09/23 10:43:38;;;;;;;4.50;2.55;;;16.70;99.90;;;;;;5074955;28;20111;-46
2023/09/23 10:46:05;;;;;;;4.28;2.83;;;16.70;99.90;;;;;;5074952;28;20036;-49
2023/09/23 10:48:31;;;;;;;5.13;2.65;;;16.60;99.90;;;;;;5074731;28;20043;-50
2023/09/23 10:50:58;;;;;;;5.40;2.85;;;16.70;99.90;;;;;;5074842;28;20425;-48
2023/09/23 10:53:28;;;;;;;5.32;2.45;;;16.80;99.90;;;;;;5074488;28;20032;-50
2023/09/23 10:55:55;;;;;;;6.40;3.05;;;16.80;99.90;;;;;;5074460;28;20036;-52
2023/09/23 10:58:21;;;;;;;4.53;2.40;;;16.90;99.90;;;;;;5074442;28;20040;-48
2023/09/23 11:00:48;;;;;;;4.90;2.80;;;16.70;99.90;;;;;;5084487;28;20036;-52
2023/09/23 11:03:19;;;;;;;5.20;2.30;;;16.60;99.90;;;;;;5065390;28;20051;-46
2023/09/23 11:05:46;;;;;;;7.45;2.67;;;16.40;99.90;;;;;;5078413;28;20410;-45
2023/09/23 11:08:14;;;;;;;9.40;2.55;;;16.30;99.90;;;;;;5084525;28;20472;-50
2023/09/23 11:10:44;;;;;;;12.38;2.90;;;16.20;99.90;;;;;;5090654;28;20040;-47
2023/09/23 11:13:11;;;;;;;6.38;3.00;;;16.10;99.90;;;;;;5078642;28;20114;-52
2023/09/23 11:15:45;;;;;;;9.15;2.83;;;16.00;99.90;;;;;;5080291;28;20501;-50
2023/09/23 11:18:16;;;;;;;4.47;2.90;;;16.10;99.90;;;;;;5082169;28;20038;-51
2023/09/23 11:20:44;;;;;;;8.40;3.50;;;16.10;99.90;;;;;;5075262;28;20048;-51
2023/09/23 11:23:10;;;;;;;5.57;3.00;;;16.10;99.90;;;;;;5073738;28;20068;-48
2023/09/23 11:25:46;;;;;;;5.40;2.83;;;16.20;99.90;;;;;;5072465;28;20045;-50
2023/09/23 11:28:25;;;;;;;5.65;2.58;;;16.20;99.90;;;;;;5073811;28;20147;-47
2023/09/23 11:30:53;;;;;;;3.88;2.17;;;16.30;99.90;;;;;;5074108;28;20033;-47
2023/09/23 11:33:20;;;;;;;9.40;3.47;;;16.20;99.90;;;;;;5073919;28;20032;-49
2023/09/23 11:35:46;;;;;;;6.00;2.78;;;16.20;99.90;;;;;;5073922;28;20485;-51
2023/09/23 11:38:19;;;;;;;5.22;2.97;;;16.10;99.90;;;;;;5073538;28;20123;-53
2023/09/23 11:40:46;;;;;;;11.10;3.15;;;16.10;99.90;;;;;;5072954;28;20479;-49
2023/09/23 11:43:12;;;;;;;8.85;3.70;;;16.10;99.90;;;;;;5073892;28;20036;-50
2023/09/23 11:45:39;;;;;;;5.05;2.90;;;16.10;99.90;;;;;;5072226;28;20509;-53
2023/09/23 11:48:07;;;;;;;9.45;3.53;;;16.10;99.90;;;;;;5073868;28;20360;-52
2023/09/23 11:50:33;;;;;;;9.05;3.25;;;16.10;99.90;;;;;;5073733;28;20455;-50
2023/09/23 11:52:59;;;;;;;3.53;1.98;;;16.10;99.90;;;;;;5073364;28;20111;-49
2023/09/23 11:55:26;;;;;;;2.38;1.30;;;16.00;99.90;;;;;;5073472;28;20033;-51
2023/09/23 11:57:54;;;;;;;10.35;1.25;;;16.00;99.90;;;;;;5070664;28;20052;-51
2023/09/23 12:00:20;;;;;;;4.03;1.60;;;15.90;99.90;;;;;;5082965;28;20048;-49
2023/09/23 12:02:48;;;;;;;3.45;1.27;;;15.90;99.90;;;;;;5089001;28;20043;-52
2023/09/23 12:05:16;;;;;;;5.70;1.60;;;15.80;99.90;;;;;;5086371;28;20028;-51
2023/09/23 12:07:42;;;;;;;;;;;15.80;99.90;;;;;;5073763;28;20076;-45
2023/09/23 12:10:09;;;;;;;3.85;1.33;;;15.70;99.90;;;;;;5074935;28;20004;-52
2023/09/23 12:12:35;;;;;;;3.53;1.27;;;15.70;99.90;;;;;;5082962;28;20082;-50
2023/09/23 12:15:02;;;;;;;3.97;1.45;;;15.70;99.90;;;;;;5079826;28;20507;-48
2023/09/23 12:17:28;;;;;;;4.95;1.67;;;15.70;99.90;;;;;;5076384;28;20090;-48
2023/09/23 12:19:53;;;;;;;3.97;1.45;;;15.70;99.90;;;;;;5089924;28;20039;-48
2023/09/23 12:22:20;;;;;;;4.57;1.50;;;15.80;99.90;;;;;;5086748;28;20048;-47
2023/09/23 12:24:46;;;;;;;4.35;1.48;;;15.70;99.90;;;;;;5074753;28;20044;-50
2023/09/23 12:27:12;;;;;;;3.38;1.30;;;15.70;99.90;;;;;;5072837;28;20028;-48
2023/09/23 12:29:38;;;;;;;2.83;1.27;;;15.70;99.90;;;;;;5072613;28;20147;-50
2023/09/23 12:32:05;;;;;;;3.15;0.93;;;15.60;99.90;;;;;;5072861;28;20441;-49
2023/09/23 12:34:31;;;;;;;2.00;1.13;;;15.60;99.90;;;;;;5071309;28;20048;-49
2023/09/23 12:36:57;;;;;;;2.92;0.90;;;15.70;99.90;;;;;;5073001;28;20036;-49
2023/09/23 12:39:24;;;;;;;1.60;1.08;;;15.90;99.90;;;;;;5072511;28;20040;-49
2023/09/23 12:41:50;;;;;;;4.28;0.85;;;15.90;99.90;;;;;;5072316;28;20048;-48
2023/09/23 12:44:19;;;;;;;1.85;0.70;;;16.10;99.90;;;;;;5072543;28;20039;-46
2023/09/23 12:46:46;;;;;;;3.13;0.90;;;16.30;99.90;;;;;;5072789;28;20048;-51